Time;durP1;ratioP1;P1;durP2;ratioP2;P2;SDS_P1;SDS_P2;PMS_P1;PMS_P2;Temp;Humidity;BMP_temperature;BMP_pressure;BME280_temperature;BME280_humidity;BME280_pressure;Samples;Min_cycle;Max_cycle;Signal;HPM_P1;HPM_P2
2022/06/12 00:02:02;;;;;;;15.10;2.92;;;;;;;16.55;68.72;102349.81;6269115;22;20008;-64
2022/06/12 00:04:28;;;;;;;11.82;1.92;;;;;;;16.53;69.01;102351.66;6268891;22;20008;-65
2022/06/12 00:06:53;;;;;;;13.65;2.60;;;;;;;16.47;69.50;102352.75;6268311;22;20092;-64
2022/06/12 00:09:19;;;;;;;17.15;3.00;;;;;;;16.48;69.35;102353.59;6268392;22;20008;-64
2022/06/12 00:11:45;;;;;;;14.55;2.65;;;;;;;16.53;69.33;102344.53;6266108;22;20073;-64
2022/06/12 00:14:11;;;;;;;13.77;2.67;;;;;;;16.52;69.79;102341.94;6268609;22;20078;-64
2022/06/12 00:16:40;;;;;;;10.55;2.28;;;;;;;16.49;70.05;102347.34;6269704;22;20240;-64
2022/06/12 00:19:07;;;;;;;14.40;2.58;;;;;;;16.42;70.21;102339.63;6268037;22;20034;-65
2022/06/12 00:21:32;;;;;;;15.43;2.70;;;;;;;16.36;70.76;102339.81;6269183;22;20420;-65
2022/06/12 00:24:08;;;;;;;12.45;2.58;;;;;;;16.35;71.11;102339.88;6269176;22;20342;-65
2022/06/12 00:26:42;;;;;;;15.23;2.78;;;;;;;16.35;71.28;102338.09;6268657;22;20432;-64
2022/06/12 00:29:12;;;;;;;10.82;2.75;;;;;;;16.39;71.27;102334.41;6267611;22;20073;-65
2022/06/12 00:31:41;;;;;;;13.52;2.50;;;;;;;16.38;71.78;102337.09;6240142;22;20425;-64
2022/06/12 00:34:07;;;;;;;19.58;2.90;;;;;;;16.33;71.83;102333.72;6267968;22;20003;-65
2022/06/12 00:36:33;;;;;;;11.93;2.88;;;;;;;16.31;72.19;102336.44;6269048;22;21116;-63
2022/06/12 00:38:59;;;;;;;17.23;3.00;;;;;;;16.28;72.63;102336.53;6268537;22;20000;-64
2022/06/12 00:41:24;;;;;;;14.05;3.03;;;;;;;16.32;72.51;102335.53;6268496;22;20053;-64
2022/06/12 00:43:50;;;;;;;14.10;3.05;;;;;;;16.26;72.71;102333.09;6267402;22;20008;-64
2022/06/12 00:46:35;;;;;;;18.85;3.40;;;;;;;16.21;73.01;102337.69;6268661;22;20007;-64
2022/06/12 00:49:06;;;;;;;18.17;2.92;;;;;;;16.21;73.53;102335.00;6268660;22;20008;-65
2022/06/12 00:51:32;;;;;;;14.50;3.00;;;;;;;16.13;73.82;102325.50;6269004;22;20008;-64
2022/06/12 00:53:58;;;;;;;16.48;3.17;;;;;;;16.09;73.94;102325.66;6240105;22;20010;-64
2022/06/12 00:56:29;;;;;;;18.95;3.08;;;;;;;15.98;74.67;102324.22;6266793;22;20003;-64
2022/06/12 00:59:02;;;;;;;17.40;3.33;;;;;;;16.00;74.94;102326.84;6240703;22;20375;-65
2022/06/12 01:01:40;;;;;;;14.77;3.33;;;;;;;16.06;75.35;102328.41;6240602;22;20027;-64
2022/06/12 01:06:53;;;;;;;14.15;3.20;;;;;;;15.97;75.61;102325.16;6267204;22;20027;-65
2022/06/12 01:09:24;;;;;;;26.05;3.92;;;;;;;16.02;76.00;102325.00;6267100;22;20008;-65
2022/06/12 01:11:52;;;;;;;13.32;2.72;;;;;;;16.02;76.10;102335.66;6267711;22;20015;-65
2022/06/12 01:14:22;;;;;;;21.13;3.45;;;;;;;16.03;76.36;102334.72;6239818;22;20090;-65
2022/06/12 01:16:48;;;;;;;;;;;;;;;16.01;76.34;102336.53;6241012;22;20074;-64
2022/06/12 01:19:27;;;;;;;21.25;3.60;;;;;;;15.96;76.05;102325.19;6267016;22;20282;-65
2022/06/12 01:22:13;;;;;;;14.52;2.88;;;;;;;15.91;76.77;102318.22;6240409;22;20091;-64
2022/06/12 01:25:03;;;;;;;15.85;3.20;;;;;;;15.91;77.15;102328.88;6205149;22;20424;-65
2022/06/12 01:27:47;;;;;;;17.63;3.08;;;;;;;15.90;77.56;102324.44;6267471;22;20492;-65
2022/06/12 01:30:15;;;;;;;16.17;3.00;;;;;;;15.88;77.80;102328.09;6267395;22;20014;-65
2022/06/12 01:33:05;;;;;;;12.88;3.22;;;;;;;15.82;78.04;102329.16;6268091;22;20079;-64
2022/06/12 01:35:40;;;;;;;29.02;3.95;;;;;;;15.84;78.19;102327.31;6267523;22;20003;-65
2022/06/12 01:38:08;;;;;;;19.73;3.63;;;;;;;15.84;78.17;102322.00;6240463;22;20324;-64
2022/06/12 01:40:42;;;;;;;35.77;4.70;;;;;;;15.88;78.32;102328.09;6268296;22;20061;-64
2022/06/12 01:43:18;;;;;;;17.38;3.65;;;;;;;15.86;78.51;102322.81;6266843;22;20444;-64
2022/06/12 01:46:05;;;;;;;17.35;3.30;;;;;;;15.83;78.70;102325.56;6241017;22;20003;-64
2022/06/12 01:48:38;;;;;;;25.73;4.20;;;;;;;15.79;78.84;102329.25;6241558;22;20356;-63
2022/06/12 01:51:10;;;;;;;22.90;3.72;;;;;;;15.78;79.08;102333.69;6267695;22;20317;-65
2022/06/12 01:53:42;;;;;;;22.17;3.30;;;;;;;15.80;79.11;102325.66;6241136;22;20000;-64
2022/06/12 01:56:19;;;;;;;29.35;3.95;;;;;;;15.81;79.50;102335.41;6240198;22;20000;-64
2022/06/12 01:59:16;;;;;;;21.98;3.90;;;;;;;15.84;79.68;102334.44;6265089;22;19999;-64
2022/06/12 02:01:52;;;;;;;24.92;3.88;;;;;;;15.85;79.76;102334.38;6199294;22;20030;-63
2022/06/12 02:04:46;;;;;;;21.33;3.40;;;;;;;15.86;79.96;102335.25;6266819;22;19999;-65
2022/06/12 02:07:25;;;;;;;21.33;4.13;;;;;;;15.86;80.09;102333.44;6229186;22;20037;-64
2022/06/12 02:09:53;;;;;;;31.58;4.50;;;;;;;15.85;80.31;102329.06;6240024;22;20035;-64
2022/06/12 02:15:14;;;;;;;;;;;;;;;15.86;80.66;102316.66;6268354;22;20234;-63
2022/06/12 02:17:45;;;;;;;23.42;4.03;;;;;;;15.78;80.55;102319.56;6267454;22;19904;-64
2022/06/12 02:20:12;;;;;;;20.48;4.13;;;;;;;15.70;80.92;102324.22;6240570;22;20110;-64
2022/06/12 02:22:39;;;;;;;23.48;3.80;;;;;;;15.66;80.80;102318.16;6268519;22;20026;-64
2022/06/12 02:25:11;;;;;;;23.63;4.57;;;;;;;15.63;80.96;102319.09;6239521;22;20073;-64
2022/06/12 02:27:43;;;;;;;25.20;4.70;;;;;;;15.61;81.29;102320.97;6268487;22;20007;-64
2022/06/12 02:30:24;;;;;;;27.27;4.28;;;;;;;15.54;81.59;102319.41;6242773;22;20066;-64
2022/06/12 02:33:18;;;;;;;25.25;4.43;;;;;;;15.50;81.97;102328.41;6241693;22;20010;-64
2022/06/12 02:35:48;;;;;;;22.42;3.90;;;;;;;15.51;82.02;102316.84;6237879;22;20053;-65
2022/06/12 02:38:14;;;;;;;;;;;;;;;15.51;82.22;102315.03;6216991;22;20507;-63
2022/06/12 02:40:44;;;;;;;23.35;4.18;;;;;;;15.49;81.90;102316.00;6240905;22;20321;-64
2022/06/12 02:43:16;;;;;;;29.88;4.40;;;;;;;15.48;82.46;102320.47;6241723;22;20104;-64
2022/06/12 02:45:52;;;;;;;18.38;3.20;;;;;;;15.46;82.55;102324.97;6241433;22;20440;-65
2022/06/12 02:48:18;;;;;;;20.38;4.03;;;;;;;15.44;82.67;102323.28;6242102;22;20226;-65
2022/06/12 02:51:13;;;;;;;19.77;3.63;;;;;;;15.41;82.84;102324.22;6242707;22;20045;-64
2022/06/12 02:53:49;;;;;;;30.50;4.43;;;;;;;15.44;83.09;102324.13;6268786;22;20008;-64
2022/06/12 02:56:20;;;;;;;27.45;4.55;;;;;;;15.46;83.12;102314.34;6240743;22;20486;-66
2022/06/12 02:59:11;;;;;;;25.55;4.65;;;;;;;15.46;82.93;102321.41;6242787;22;20010;-64
2022/06/12 03:01:44;;;;;;;29.55;4.93;;;;;;;15.41;83.29;102309.16;6242009;22;20336;-64
2022/06/12 03:04:22;;;;;;;33.75;4.60;;;;;;;15.45;83.64;102309.94;6241593;22;20004;-64
2022/06/12 03:06:47;;;;;;;32.13;4.75;;;;;;;15.50;83.50;102312.47;6242107;22;20050;-64
2022/06/12 03:09:12;;;;;;;23.10;4.78;;;;;;;15.46;83.68;102317.00;6241251;22;20040;-64
2022/06/12 03:11:41;;;;;;;23.80;3.80;;;;;;;15.52;83.42;102305.28;6241466;22;20000;-64
2022/06/12 03:14:15;;;;;;;32.73;4.80;;;;;;;15.52;83.56;102305.28;6269521;22;20014;-64
2022/06/12 03:16:43;;;;;;;23.10;4.53;;;;;;;15.52;83.23;102308.84;6268678;22;20053;-64
2022/06/12 03:19:23;;;;;;;32.17;4.72;;;;;;;15.51;83.37;102315.03;6268242;22;20004;-64
2022/06/12 03:22:22;;;;;;;35.15;4.93;;;;;;;15.46;83.76;102310.78;6242448;22;19999;-64
2022/06/12 03:25:02;;;;;;;25.38;5.03;;;;;;;15.50;83.55;102307.16;6240950;22;20004;-65
2022/06/12 03:27:53;;;;;;;28.45;5.18;;;;;;;15.44;83.55;102315.31;6241222;22;20466;-64
2022/06/12 03:30:30;;;;;;;24.33;4.30;;;;;;;15.43;83.94;102318.84;6269362;22;20011;-63
2022/06/12 03:33:14;;;;;;;30.25;4.75;;;;;;;15.45;83.89;102319.69;6215432;22;20399;-64
2022/06/12 03:35:59;;;;;;;25.00;4.68;;;;;;;15.44;83.87;102317.97;6268995;22;20049;-64
2022/06/12 03:38:30;;;;;;;35.97;5.57;;;;;;;15.45;83.84;102330.31;6241848;22;20030;-63
2022/06/12 03:41:18;;;;;;;29.83;4.95;;;;;;;15.50;83.77;102315.13;6268008;22;20106;-63
2022/06/12 03:44:14;;;;;;;24.10;4.70;;;;;;;15.51;83.79;102327.47;6241359;22;20006;-63
2022/06/12 03:46:59;;;;;;;31.25;4.60;;;;;;;15.55;83.77;102326.47;6241543;22;20114;-64
2022/06/12 03:49:43;;;;;;;27.85;4.38;;;;;;;15.54;83.48;102330.03;6240844;22;20459;-64
2022/06/12 03:52:31;;;;;;;29.80;4.63;;;;;;;15.56;83.76;102328.19;6268021;22;20003;-64
2022/06/12 03:55:09;;;;;;;23.90;5.40;;;;;;;15.55;83.40;102326.47;6268201;22;20000;-63
2022/06/12 03:57:51;;;;;;;25.70;5.22;;;;;;;15.59;83.54;102321.94;6240866;22;20003;-64
2022/06/12 04:00:41;;;;;;;23.00;4.93;;;;;;;15.60;83.47;102323.66;6267437;22;20327;-63
2022/06/12 04:03:06;;;;;;;26.75;4.30;;;;;;;15.68;83.17;102326.94;6241407;22;20054;-65
2022/06/12 04:05:40;;;;;;;29.88;6.03;;;;;;;15.66;83.28;102321.66;6268961;22;20003;-64
2022/06/12 04:08:10;;;;;;;25.83;5.47;;;;;;;15.65;83.10;102322.59;6239978;22;20463;-64
2022/06/12 04:10:38;;;;;;;23.17;4.50;;;;;;;15.69;83.14;102327.81;6240714;22;20309;-63
2022/06/12 04:13:05;;;;;;;24.35;4.57;;;;;;;15.75;82.78;102332.94;6267260;22;20017;-65
2022/06/12 04:15:34;;;;;;;21.35;4.20;;;;;;;15.74;82.78;102331.22;6268599;22;20049;-65
2022/06/12 04:17:59;;;;;;;;;;;;;;;15.77;82.74;102336.38;6241327;22;20015;-63
2022/06/12 04:20:40;;;;;;;26.17;4.65;;;;;;;15.83;82.16;102332.69;6268392;22;19899;-63
2022/06/12 04:23:20;;;;;;;18.63;3.95;;;;;;;15.89;81.85;102328.03;6267707;22;20006;-64
2022/06/12 04:25:55;;;;;;;26.50;4.70;;;;;;;15.96;81.53;102330.50;6268190;22;20003;-64
2022/06/12 04:28:31;;;;;;;19.20;4.68;;;;;;;16.01;81.03;102334.75;6240844;22;20004;-65
2022/06/12 04:30:58;;;;;;;28.55;4.70;;;;;;;15.98;81.01;102328.69;6268587;22;20007;-64
2022/06/12 04:33:35;;;;;;;23.70;5.22;;;;;;;16.10;80.39;102338.91;6268070;22;20006;-64
2022/06/12 04:36:02;;;;;;;18.70;3.85;;;;;;;16.19;79.99;102332.41;6241573;22;20076;-64
2022/06/12 04:38:30;;;;;;;22.08;4.30;;;;;;;16.20;80.02;102338.59;6268164;22;20049;-64
2022/06/12 04:40:56;;;;;;;29.58;4.60;;;;;;;16.27;79.61;102332.16;6266458;22;20003;-63
2022/06/12 04:43:21;;;;;;;24.80;5.18;;;;;;;16.27;79.47;102342.78;6268175;22;20014;-63
2022/06/12 04:45:47;;;;;;;22.05;4.43;;;;;;;16.35;79.10;102346.06;6266878;22;20125;-64
2022/06/12 04:48:18;;;;;;;22.77;4.35;;;;;;;16.42;78.56;102341.41;6240160;22;20007;-65
2022/06/12 04:50:43;;;;;;;27.13;4.63;;;;;;;16.44;78.66;102346.66;6241528;22;20010;-64
2022/06/12 04:53:08;;;;;;;29.17;4.50;;;;;;;16.49;78.23;102342.03;6266367;22;20004;-64
2022/06/12 04:55:34;;;;;;;21.23;4.18;;;;;;;16.51;78.26;102350.84;6268304;22;20019;-63
2022/06/12 04:58:00;;;;;;;23.60;3.85;;;;;;;16.59;77.78;102348.81;6267853;22;20031;-63
2022/06/12 05:00:26;;;;;;;13.88;3.80;;;;;;;16.67;77.60;102344.06;6266793;22;20000;-65
2022/06/12 05:02:52;;;;;;;14.65;3.75;;;;;;;16.77;77.44;102341.06;6268078;22;20061;-64
2022/06/12 05:05:17;;;;;;;22.75;3.80;;;;;;;16.82;76.86;102341.75;6267238;22;20007;-64
2022/06/12 05:07:43;;;;;;;18.10;3.90;;;;;;;16.89;76.75;102340.59;6267774;22;20031;-64
2022/06/12 05:10:10;;;;;;;18.75;3.88;;;;;;;16.89;76.48;102343.25;6267239;22;19999;-65
2022/06/12 05:12:36;;;;;;;15.35;3.72;;;;;;;16.96;76.17;102348.38;6240613;22;20003;-63
2022/06/12 05:15:01;;;;;;;16.17;3.42;;;;;;;16.98;76.10;102347.38;6240038;22;20046;-66
2022/06/12 05:17:27;;;;;;;17.58;3.78;;;;;;;17.10;75.62;102340.75;6268278;22;20006;-64
2022/06/12 05:19:52;;;;;;;18.17;3.42;;;;;;;17.17;75.55;102347.63;6240900;22;20050;-62
2022/06/12 05:22:21;;;;;;;13.77;3.78;;;;;;;17.18;75.13;102349.34;6266275;22;20007;-63
2022/06/12 05:24:47;;;;;;;;;;;;;;;17.34;74.92;102346.06;6266998;22;20011;-64
2022/06/12 05:27:16;;;;;;;18.63;3.97;;;;;;;17.36;73.35;102346.00;6265106;22;19907;-64
2022/06/12 05:29:42;;;;;;;16.30;3.70;;;;;;;17.39;73.28;102344.13;6241050;22;20460;-64
2022/06/12 05:32:08;;;;;;;18.05;3.47;;;;;;;17.51;73.20;102344.56;6241272;22;20010;-65
2022/06/12 05:34:34;;;;;;;15.50;3.53;;;;;;;17.55;73.14;102340.88;6267569;22;20380;-65
2022/06/12 05:36:59;;;;;;;17.20;3.55;;;;;;;17.66;72.58;102346.63;6266858;22;20243;-64
2022/06/12 05:39:25;;;;;;;14.20;3.03;;;;;;;17.71;72.60;102346.44;6265811;22;20053;-63
2022/06/12 05:41:51;;;;;;;16.50;3.75;;;;;;;17.77;72.66;102356.84;6239331;22;20211;-61
2022/06/12 05:44:17;;;;;;;19.40;3.35;;;;;;;17.88;71.76;102355.56;6263895;22;20007;-60
2022/06/12 05:46:43;;;;;;;11.95;3.25;;;;;;;18.02;70.50;102366.50;6268122;22;20038;-60
2022/06/12 05:49:08;;;;;;;9.98;2.92;;;;;;;18.08;69.19;102364.50;6268035;22;20045;-60
2022/06/12 05:51:34;;;;;;;16.65;3.60;;;;;;;18.21;68.52;102364.91;6267881;22;20100;-60
2022/06/12 05:53:59;;;;;;;9.82;2.42;;;;;;;18.09;66.98;102375.13;6268566;22;20026;-61
2022/06/12 05:56:27;;;;;;;17.05;3.33;;;;;;;18.19;67.41;102368.50;6267039;22;20015;-60
2022/06/12 05:58:53;;;;;;;13.27;2.60;;;;;;;18.21;67.59;102371.09;6267555;22;20004;-60
2022/06/12 06:01:21;;;;;;;7.30;2.20;;;;;;;18.31;66.62;102374.25;6241627;22;20027;-61
2022/06/12 06:03:48;;;;;;;12.32;2.97;;;;;;;18.29;66.01;102371.66;6269728;22;20000;-61
2022/06/12 06:06:17;;;;;;;11.02;2.45;;;;;;;18.34;65.93;102368.81;6242069;22;20014;-61
2022/06/12 06:08:42;;;;;;;;;;;;;;;18.34;66.63;102370.59;6270221;22;20016;-61
2022/06/12 06:11:07;;;;;;;11.57;2.53;;;;;;;18.21;66.72;102375.59;6268763;22;19915;-62
2022/06/12 06:13:33;;;;;;;17.00;3.00;;;;;;;18.19;66.45;102376.50;6269243;22;20004;-62
2022/06/12 06:15:59;;;;;;;11.02;2.78;;;;;;;18.25;65.42;102371.84;6243090;22;20003;-61
2022/06/12 06:18:24;;;;;;;10.43;2.40;;;;;;;18.21;65.12;102371.09;6269501;22;20014;-61
2022/06/12 06:20:50;;;;;;;9.90;2.53;;;;;;;18.26;64.94;102370.91;6269569;22;20019;-62
2022/06/12 06:23:16;;;;;;;12.60;2.85;;;;;;;18.36;65.01;102382.91;6269074;22;20000;-62
2022/06/12 06:25:41;;;;;;;12.30;2.78;;;;;;;18.34;64.86;102387.47;6269358;22;20053;-63
2022/06/12 06:28:09;;;;;;;11.13;2.60;;;;;;;18.29;65.71;102389.47;6269260;22;20014;-62
2022/06/12 06:30:35;;;;;;;10.48;2.50;;;;;;;18.38;64.99;102393.53;6269489;22;20000;-64
2022/06/12 06:33:00;;;;;;;7.70;2.40;;;;;;;18.40;64.70;102389.00;6269586;22;20008;-64
2022/06/12 06:35:27;;;;;;;7.78;2.67;;;;;;;18.34;64.33;102389.28;6269490;22;20320;-63
2022/06/12 06:37:52;;;;;;;11.05;2.90;;;;;;;18.40;64.17;102397.91;6268734;22;20448;-64
2022/06/12 06:40:20;;;;;;;9.45;2.63;;;;;;;18.45;63.95;102400.34;6269217;22;20288;-64
2022/06/12 06:42:45;;;;;;;9.57;2.55;;;;;;;18.45;63.79;102400.34;6240492;22;20486;-64
2022/06/12 06:47:56;;;;;;;15.10;3.55;;;;;;;18.53;63.73;102406.25;6269229;22;20013;-64
2022/06/12 06:50:22;;;;;;;9.18;2.42;;;;;;;18.65;63.49;102411.97;6269406;22;20008;-64
2022/06/12 06:52:47;;;;;;;7.80;2.33;;;;;;;18.63;64.53;102416.53;6268440;22;20008;-63
2022/06/12 06:55:13;;;;;;;11.07;2.72;;;;;;;18.76;64.09;102412.38;6268892;22;20031;-64
2022/06/12 06:57:41;;;;;;;11.52;2.90;;;;;;;18.88;63.99;102423.47;6268274;22;20328;-63
2022/06/12 07:00:09;;;;;;;9.60;2.70;;;;;;;18.85;63.50;102418.25;6267769;22;20070;-63
2022/06/12 07:02:34;;;;;;;17.23;2.53;;;;;;;19.02;62.87;102430.88;6268997;22;20000;-62
2022/06/12 07:04:59;;;;;;;10.65;2.50;;;;;;;19.08;63.15;102419.91;6268990;22;20030;-63
2022/06/12 07:07:25;;;;;;;9.35;2.50;;;;;;;19.09;62.39;102432.34;6266487;22;20042;-63
2022/06/12 07:09:50;;;;;;;13.45;2.75;;;;;;;19.00;62.65;102428.25;6269134;22;20070;-65
2022/06/12 07:12:16;;;;;;;9.48;2.50;;;;;;;19.07;62.04;102431.50;6267675;22;20041;-64
2022/06/12 07:14:41;;;;;;;8.35;2.35;;;;;;;19.10;60.93;102434.09;6241256;22;20011;-64
2022/06/12 07:17:07;;;;;;;10.30;2.90;;;;;;;19.25;61.33;102427.19;6268672;22;20377;-63
2022/06/12 07:19:33;;;;;;;8.77;2.50;;;;;;;19.19;61.49;102432.78;6268851;22;20016;-65
2022/06/12 07:21:59;;;;;;;8.80;2.25;;;;;;;19.26;61.50;102422.72;6241570;22;20011;-64
2022/06/12 07:24:24;;;;;;;12.75;2.30;;;;;;;19.35;60.29;102421.41;6268456;22;20077;-63
2022/06/12 07:26:50;;;;;;;13.00;2.47;;;;;;;19.43;60.12;102414.78;6268194;22;20079;-64
2022/06/12 07:29:17;;;;;;;10.98;2.17;;;;;;;19.51;59.70;102410.88;6240032;22;20011;-64
2022/06/12 07:31:44;;;;;;;11.38;2.75;;;;;;;19.49;60.04;102408.28;6268132;22;20004;-63
2022/06/12 07:34:11;;;;;;;8.43;2.60;;;;;;;19.72;59.31;102402.78;6267814;22;20007;-63
2022/06/12 07:36:37;;;;;;;13.45;2.60;;;;;;;19.88;58.26;102403.75;6268381;22;20011;-62
2022/06/12 07:39:05;;;;;;;13.70;3.05;;;;;;;19.88;58.92;102401.09;6241175;22;20114;-65
2022/06/12 07:41:30;;;;;;;13.63;2.42;;;;;;;20.06;58.45;102410.06;6241452;22;20011;-64
2022/06/12 07:43:55;;;;;;;11.35;2.40;;;;;;;20.17;57.43;102416.69;6268437;22;20735;-64
2022/06/12 07:46:21;;;;;;;7.22;2.65;;;;;;;20.25;57.26;102416.28;6268418;22;20007;-63
2022/06/12 07:48:47;;;;;;;10.52;3.00;;;;;;;20.36;57.60;102410.38;6268766;22;20444;-64
2022/06/12 07:51:17;;;;;;;12.50;3.00;;;;;;;20.33;57.02;102414.09;6268461;22;20015;-64
2022/06/12 07:53:44;;;;;;;7.95;2.25;;;;;;;20.47;56.17;102405.38;6268771;22;20374;-64
2022/06/12 07:56:10;;;;;;;11.35;2.60;;;;;;;20.42;55.70;102408.28;6267191;22;20021;-64
2022/06/12 07:58:37;;;;;;;7.47;2.30;;;;;;;20.44;54.90;102414.41;6267447;22;20000;-64
2022/06/12 08:01:05;;;;;;;7.68;2.42;;;;;;;20.51;54.77;102400.72;6267335;22;20022;-63
2022/06/12 08:03:31;;;;;;;7.43;1.85;;;;;;;20.39;54.82;102412.91;6268327;22;20003;-63
2022/06/12 08:05:57;;;;;;;9.35;2.55;;;;;;;20.24;55.44;102412.75;6267280;22;20011;-63
2022/06/12 08:08:24;;;;;;;10.73;2.88;;;;;;;20.32;53.96;102415.88;6268517;22;20012;-64
2022/06/12 08:10:49;;;;;;;7.50;2.40;;;;;;;20.41;54.29;102408.34;6267674;22;20003;-65
2022/06/12 08:13:15;;;;;;;10.32;2.38;;;;;;;20.33;54.47;102414.97;6267597;22;20010;-64
2022/06/12 08:15:46;;;;;;;11.32;2.50;;;;;;;20.40;55.28;102418.19;6268508;22;19995;-63
2022/06/12 08:18:13;;;;;;;8.32;2.20;;;;;;;20.61;54.17;102420.69;6268138;22;20091;-64
2022/06/12 08:20:45;;;;;;;10.85;2.72;;;;;;;20.61;53.56;102422.50;6268900;22;20000;-64
2022/06/12 08:23:27;;;;;;;8.38;2.25;;;;;;;20.59;54.07;102414.59;6214900;22;20014;-63
2022/06/12 08:26:18;;;;;;;7.93;2.20;;;;;;;20.50;53.36;102425.75;6267646;22;20046;-63
2022/06/12 08:29:05;;;;;;;10.82;2.60;;;;;;;20.47;53.12;102409.84;6267127;22;20000;-65
2022/06/12 08:31:34;;;;;;;7.72;2.22;;;;;;;20.58;54.14;102407.47;6269129;22;20031;-64
2022/06/12 08:34:06;;;;;;;8.68;2.15;;;;;;;20.64;52.43;102411.63;6268214;22;20004;-64
2022/06/12 08:36:31;;;;;;;9.35;2.47;;;;;;;20.60;51.77;102418.97;6241965;22;20014;-63
2022/06/12 08:38:57;;;;;;;9.98;2.60;;;;;;;20.47;52.16;102417.88;6240971;22;20499;-64
2022/06/12 08:41:31;;;;;;;8.98;2.13;;;;;;;20.49;51.22;102414.16;6267554;22;20004;-64
2022/06/12 08:44:00;;;;;;;8.85;2.33;;;;;;;20.38;52.09;102430.78;6268377;22;20049;-64
2022/06/12 08:46:53;;;;;;;5.55;2.15;;;;;;;20.44;51.17;102411.72;6268419;22;20008;-64
2022/06/12 08:49:28;;;;;;;10.95;2.33;;;;;;;20.62;51.82;102419.75;6225962;22;20014;-66
2022/06/12 08:51:53;;;;;;;9.55;2.47;;;;;;;20.71;51.27;102418.44;6240083;22;20004;-61
2022/06/12 08:54:25;;;;;;;11.18;2.20;;;;;;;20.75;50.96;102411.09;6267028;22;20314;-63
2022/06/12 08:56:55;;;;;;;13.35;2.50;;;;;;;20.73;50.66;102394.22;6266035;22;20004;-63
2022/06/12 08:59:35;;;;;;;8.98;2.13;;;;;;;20.61;52.26;102399.28;6240141;22;20451;-62
2022/06/12 09:02:04;;;;;;;10.98;2.33;;;;;;;20.71;51.69;102392.50;6266473;22;20006;-61
2022/06/12 09:04:30;;;;;;;7.57;2.03;;;;;;;20.71;51.00;102392.50;6240343;22;19992;-62
2022/06/12 09:07:11;;;;;;;6.15;1.90;;;;;;;20.68;50.00;102389.13;6267627;22;20012;-62
2022/06/12 09:09:49;;;;;;;8.68;2.05;;;;;;;20.90;50.06;102390.69;6240164;22;20497;-63
2022/06/12 09:12:37;;;;;;;8.52;2.40;;;;;;;20.94;50.41;102386.91;6266895;22;20011;-62
2022/06/12 09:15:10;;;;;;;6.45;1.92;;;;;;;20.89;49.64;102395.13;6240445;22;20003;-61
2022/06/12 09:18:06;;;;;;;7.30;2.15;;;;;;;20.98;46.52;102399.16;6240719;22;20011;-61
2022/06/12 09:20:54;;;;;;;5.18;1.77;;;;;;;21.05;46.91;102402.41;6241144;22;20367;-61
2022/06/12 09:23:28;;;;;;;10.52;2.55;;;;;;;21.00;46.52;102396.41;6266891;22;20004;-62
2022/06/12 09:26:06;;;;;;;8.20;2.40;;;;;;;20.93;47.98;102404.81;6266832;22;20172;-61
2022/06/12 09:28:43;;;;;;;8.98;1.90;;;;;;;20.87;46.22;102401.53;6240053;22;20023;-62
2022/06/12 09:31:22;;;;;;;3.67;1.73;;;;;;;20.98;46.62;102409.03;6240704;22;20124;-63
2022/06/12 09:33:54;;;;;;;7.07;1.90;;;;;;;21.01;46.49;102404.38;6214952;22;20090;-61
2022/06/12 09:36:25;;;;;;;4.35;1.80;;;;;;;21.16;43.85;102394.63;6241331;22;20076;-61
2022/06/12 09:39:02;;;;;;;10.45;1.67;;;;;;;20.96;43.22;102401.09;6268616;22;20432;-62
2022/06/12 09:41:44;;;;;;;7.35;1.98;;;;;;;21.11;44.86;102423.50;6269254;22;20361;-60
2022/06/12 09:44:30;;;;;;;4.40;1.40;;;;;;;21.43;44.75;102404.78;6269918;22;20170;-60
2022/06/12 09:46:55;;;;;;;7.55;2.17;;;;;;;21.48;45.25;102403.66;6268821;22;20000;-61
2022/06/12 09:49:27;;;;;;;7.30;1.75;;;;;;;21.39;45.62;102408.59;6269248;22;20008;-61
2022/06/12 09:52:11;;;;;;;5.03;1.70;;;;;;;21.48;46.08;102417.06;6269528;22;20779;-61
2022/06/12 09:54:53;;;;;;;4.75;1.40;;;;;;;21.62;45.69;102411.81;6241605;22;20343;-60
2022/06/12 09:57:38;;;;;;;10.55;1.90;;;;;;;21.45;43.75;102412.75;6241822;22;20004;-60
2022/06/12 10:00:05;;;;;;;7.60;2.25;;;;;;;21.25;42.90;102403.97;6241472;22;20107;-62
2022/06/12 10:02:36;;;;;;;5.38;1.92;;;;;;;21.14;44.58;102415.31;6270276;22;20499;-62
2022/06/12 10:05:13;;;;;;;7.93;1.80;;;;;;;21.19;43.63;102402.50;6241625;22;20031;-61
2022/06/12 10:07:42;;;;;;;10.40;2.00;;;;;;;21.03;45.32;102413.19;6269727;22;20019;-61
2022/06/12 10:10:33;;;;;;;4.47;1.60;;;;;;;21.13;44.90;102415.41;6267906;22;20024;-61
2022/06/12 10:13:04;;;;;;;7.00;1.77;;;;;;;21.37;44.84;102406.97;6270104;22;20079;-62
2022/06/12 10:15:39;;;;;;;6.13;1.98;;;;;;;21.57;44.33;102411.19;6243397;22;20000;-61
2022/06/12 10:18:14;;;;;;;6.00;1.50;;;;;;;21.57;42.06;102411.19;6269083;22;20007;-62
2022/06/12 10:20:43;;;;;;;3.55;1.42;;;;;;;21.50;42.54;102421.41;6241069;22;20000;-61
2022/06/12 10:23:09;;;;;;;4.72;1.65;;;;;;;21.45;43.84;102423.47;6241004;22;20007;-62
2022/06/12 10:25:37;;;;;;;6.65;2.00;;;;;;;21.34;45.37;102421.38;6268832;22;20011;-62
2022/06/12 10:28:23;;;;;;;7.87;2.27;;;;;;;21.28;45.53;102411.00;6267209;22;20003;-62
2022/06/12 10:31:10;;;;;;;4.55;1.50;;;;;;;21.51;45.37;102416.91;6241456;22;20242;-62
2022/06/12 10:33:41;;;;;;;9.32;1.95;;;;;;;21.62;43.63;102413.63;6268332;22;20007;-62
2022/06/12 10:36:26;;;;;;;5.22;2.03;;;;;;;21.58;44.75;102418.28;6268957;22;20014;-61
2022/06/12 10:39:20;;;;;;;6.07;1.75;;;;;;;21.63;41.09;102413.53;6268518;22;20575;-63
2022/06/12 10:41:47;;;;;;;9.35;2.10;;;;;;;21.69;42.88;102415.00;6268801;22;20309;-61
2022/06/12 10:44:41;;;;;;;8.02;2.05;;;;;;;21.71;41.84;102411.28;6240076;22;20343;-62
2022/06/12 10:47:18;;;;;;;6.22;2.03;;;;;;;21.87;42.57;102407.75;6268643;22;20004;-61
2022/06/12 10:49:44;;;;;;;8.77;1.88;;;;;;;22.04;43.68;102389.81;6268022;22;20011;-62
2022/06/12 10:52:19;;;;;;;6.43;1.67;;;;;;;22.24;41.38;102401.22;6269011;22;20000;-63
2022/06/12 10:54:45;;;;;;;9.82;2.10;;;;;;;22.36;41.74;102394.25;6268282;22;20062;-63
2022/06/12 10:57:34;;;;;;;6.28;1.80;;;;;;;22.37;42.21;102406.72;6267337;22;20053;-62
2022/06/12 11:00:04;;;;;;;9.00;2.45;;;;;;;22.52;41.96;102395.06;6240503;22;20014;-62
2022/06/12 11:02:40;;;;;;;4.78;1.75;;;;;;;22.70;41.45;102400.28;6269220;22;20117;-61
2022/06/12 11:05:20;;;;;;;8.38;1.90;;;;;;;22.86;40.42;102405.59;6268699;22;20015;-61
2022/06/12 11:07:58;;;;;;;5.40;1.73;;;;;;;22.80;38.53;102396.09;6268956;22;20464;-62
2022/06/12 11:10:52;;;;;;;7.78;1.52;;;;;;;23.14;39.06;102398.47;6267758;22;20629;-62
2022/06/12 11:13:39;;;;;;;5.38;1.83;;;;;;;23.18;38.74;102397.31;6241988;22;20011;-64
2022/06/12 11:16:04;;;;;;;6.78;2.10;;;;;;;22.89;38.91;102394.66;6241974;22;20015;-62
2022/06/12 11:18:58;;;;;;;5.82;1.90;;;;;;;22.94;39.35;102397.06;6270168;22;20075;-62
2022/06/12 11:21:46;;;;;;;8.23;2.05;;;;;;;22.96;40.86;102412.09;6267901;22;20003;-60
2022/06/12 11:24:24;;;;;;;7.28;2.10;;;;;;;22.90;41.01;102399.06;6241662;22;20011;-60
2022/06/12 11:27:05;;;;;;;9.50;2.20;;;;;;;22.84;41.87;102399.44;6239923;22;20015;-61
2022/06/12 11:30:10;;;;;;;9.52;2.67;;;;;;;22.40;43.06;102399.34;6269798;22;20014;-60
2022/06/12 11:33:00;;;;;;;4.63;1.67;;;;;;;22.46;43.02;102395.44;6241400;22;20459;-62
2022/06/12 11:35:31;;;;;;;6.95;2.05;;;;;;;22.58;43.17;102399.22;6269358;22;20010;-62
2022/06/12 11:38:02;;;;;;;9.90;2.10;;;;;;;22.28;41.75;102411.69;6269065;22;20425;-61
2022/06/12 11:40:40;;;;;;;11.30;2.42;;;;;;;22.27;42.46;102396.50;6241503;22;20000;-62
2022/06/12 11:43:11;;;;;;;7.83;2.03;;;;;;;22.28;42.61;102389.31;6268089;22;20026;-61
2022/06/12 11:45:49;;;;;;;7.75;2.35;;;;;;;22.51;42.22;102395.16;6268846;22;20068;-60
2022/06/12 11:48:58;;;;;;;10.93;2.20;;;;;;;22.76;42.17;102401.72;6268192;22;20034;-60
2022/06/12 11:51:31;;;;;;;5.22;2.00;;;;;;;22.88;41.53;102381.31;6266907;22;20449;-61
2022/06/12 11:54:06;;;;;;;7.30;2.03;;;;;;;23.07;40.65;102392.63;6269855;22;20011;-63
2022/06/12 11:57:09;;;;;;;7.88;2.05;;;;;;;23.10;39.03;102381.69;6267124;22;20011;-63